Time;durP1;ratioP1;P1;durP2;ratioP2;P2;SDS_P1;SDS_P2;PMS_P1;PMS_P2;Temp;Humidity;BMP_temperature;BMP_pressure;BME280_temperature;BME280_humidity;BME280_pressure;Samples;Min_cycle;Max_cycle;Signal;HPM_P1;HPM_P2
2021/06/09 00:00:54;;;;;;;;;;;18.30;77.30;;;;;;4979715;28;87696;-50
2021/06/09 00:03:23;;;;;;;;;;;18.20;77.30;;;;;;4981233;28;87187;-51
2021/06/09 00:05:49;;;;;;;;;;;18.20;77.30;;;;;;4980709;28;87175;-49
2021/06/09 00:08:15;;;;;;;;;;;18.20;77.30;;;;;;4978232;28;87146;-52
2021/06/09 00:10:40;;;;;;;;;;;18.20;77.20;;;;;;4979303;28;87472;-50
2021/06/09 00:13:06;;;;;;;;;;;18.20;77.20;;;;;;4980200;28;88050;-50
2021/06/09 00:15:31;;;;;;;;;;;18.20;77.30;;;;;;4981843;28;86442;-53
2021/06/09 00:17:57;;;;;;;;;;;18.20;77.40;;;;;;4981195;28;87167;-51
2021/06/09 00:20:24;;;;;;;;;;;18.20;77.30;;;;;;4979633;28;88694;-50
2021/06/09 00:22:50;;;;;;;;;;;18.10;77.20;;;;;;4979105;28;88113;-50
2021/06/09 00:25:16;;;;;;;;;;;18.10;77.30;;;;;;4979858;28;89418;-51
2021/06/09 00:27:43;;;;;;;;;;;18.10;77.30;;;;;;4983484;28;89567;-51
2021/06/09 00:30:09;;;;;;;;;;;18.10;77.30;;;;;;4980757;28;87201;-51
2021/06/09 00:32:35;;;;;;;;;;;18.10;77.40;;;;;;4980442;28;88616;-53
2021/06/09 00:35:00;;;;;;;;;;;18.10;77.30;;;;;;4979608;28;87936;-50
2021/06/09 00:37:26;;;;;;;;;;;18.10;77.30;;;;;;4976780;28;87561;-52
2021/06/09 00:39:51;;;;;;;;;;;18.00;77.30;;;;;;4978093;28;88096;-50
2021/06/09 00:42:20;;;;;;;;;;;18.00;77.20;;;;;;4979213;28;87169;-52
2021/06/09 00:44:46;;;;;;;;;;;18.00;77.30;;;;;;4977252;28;87807;-52
2021/06/09 00:47:11;;;;;;;;;;;18.00;77.30;;;;;;4975450;28;89177;-51
2021/06/09 00:49:37;;;;;;;;;;;18.00;77.30;;;;;;4979413;28;87145;-50
2021/06/09 00:52:03;;;;;;;;;;;18.00;77.30;;;;;;4977003;28;87578;-50
2021/06/09 00:54:28;;;;;;;;;;;18.00;77.20;;;;;;4978393;28;87159;-50
2021/06/09 00:56:54;;;;;;;;;;;18.00;77.20;;;;;;4979740;28;87173;-52
2021/06/09 00:59:20;;;;;;;;;;;17.90;77.20;;;;;;4979852;28;87747;-50
2021/06/09 01:01:46;;;;;;;;;;;17.90;77.20;;;;;;4980578;28;88665;-50
2021/06/09 01:04:11;;;;;;;;;;;17.90;77.30;;;;;;4978112;28;89365;-53
2021/06/09 01:06:37;;;;;;;;;;;17.90;77.20;;;;;;4976149;28;88116;-50
2021/06/09 01:09:04;;;;;;;;;;;17.90;77.20;;;;;;4976764;28;87269;-50
2021/06/09 01:11:30;;;;;;;;;;;17.90;77.20;;;;;;4981383;28;89722;-50
2021/06/09 01:13:56;;;;;;;;;;;17.80;77.10;;;;;;4976076;28;88875;-51
2021/06/09 01:16:23;;;;;;;;;;;17.90;77.20;;;;;;4977117;28;88473;-50
2021/06/09 01:18:49;;;;;;;;;;;17.80;77.10;;;;;;4977789;28;89807;-51
2021/06/09 01:21:15;;;;;;;;;;;17.80;77.00;;;;;;4976412;28;87175;-50
2021/06/09 01:23:40;;;;;;;;;;;17.80;77.10;;;;;;4977605;28;87475;-50
2021/06/09 01:26:07;;;;;;;;;;;17.80;77.10;;;;;;4978170;28;88318;-50
2021/06/09 01:28:34;;;;;;;;;;;17.80;77.10;;;;;;4976868;28;86384;-50
2021/06/09 01:31:00;;;;;;;;;;;17.70;77.10;;;;;;4976132;28;87174;-50
2021/06/09 01:33:25;;;;;;;;;;;17.70;77.10;;;;;;4979404;28;87462;-50
2021/06/09 01:35:52;;;;;;;;;;;17.70;77.10;;;;;;4975498;28;88888;-50
2021/06/09 01:38:17;;;;;;;;;;;17.70;77.00;;;;;;4979790;28;87669;-50
2021/06/09 01:40:43;;;;;;;;;;;17.70;77.00;;;;;;4981265;28;87137;-50
2021/06/09 01:43:09;;;;;;;;;;;17.70;77.00;;;;;;4982322;28;87196;-52
2021/06/09 01:45:36;;;;;;;;;;;17.70;77.10;;;;;;4982450;28;88269;-51
2021/06/09 01:48:02;;;;;;;;;;;17.60;76.90;;;;;;4982502;28;87253;-50
2021/06/09 01:50:28;;;;;;;;;;;17.70;77.00;;;;;;4981789;28;87175;-50
2021/06/09 01:52:54;;;;;;;;;;;17.70;77.10;;;;;;4984321;28;87908;-50
2021/06/09 01:55:21;;;;;;;;;;;17.60;77.00;;;;;;4982191;28;87888;-51
2021/06/09 01:57:46;;;;;;;;;;;17.60;76.70;;;;;;4981070;28;88687;-51
2021/06/09 02:00:14;;;;;;;;;;;17.60;76.90;;;;;;4981043;28;88083;-50
2021/06/09 02:02:40;;;;;;;;;;;17.50;76.70;;;;;;4979994;28;89657;-51
2021/06/09 02:05:07;;;;;;;;;;;17.60;76.80;;;;;;4980277;28;89180;-51
2021/06/09 02:07:40;;;;;;;;;;;17.60;76.90;;;;;;4979622;28;87153;-49
2021/06/09 02:10:07;;;;;;;;;;;17.50;77.00;;;;;;4982156;28;87463;-50
2021/06/09 02:12:33;;;;;;;;;;;17.50;76.80;;;;;;4979965;28;90016;-51
2021/06/09 02:14:58;;;;;;;;;;;17.50;77.00;;;;;;4982160;28;87142;-50
2021/06/09 02:17:24;;;;;;;;;;;17.50;76.90;;;;;;4978654;28;87359;-51
2021/06/09 02:19:50;;;;;;;;;;;17.50;76.80;;;;;;4978955;28;87174;-52
2021/06/09 02:22:15;;;;;;;;;;;17.50;76.80;;;;;;4980027;28;87279;-50
2021/06/09 02:24:41;;;;;;;;;;;17.40;76.70;;;;;;4980138;28;88532;-50
2021/06/09 02:27:06;;;;;;;;;;;17.40;76.70;;;;;;4982027;28;87162;-50
2021/06/09 02:29:32;;;;;;;;;;;17.40;76.90;;;;;;4982182;28;87193;-51
2021/06/09 02:31:57;;;;;;;;;;;17.40;76.80;;;;;;4982748;28;88211;-51
2021/06/09 02:34:24;;;;;;;;;;;17.40;76.90;;;;;;4982925;28;88723;-50
2021/06/09 02:36:50;;;;;;;;;;;17.40;76.80;;;;;;4985090;28;88383;-50
2021/06/09 02:39:16;;;;;;;;;;;17.30;76.80;;;;;;4982950;28;87221;-52
2021/06/09 02:41:42;;;;;;;;;;;17.30;76.80;;;;;;4982081;28;87526;-53
2021/06/09 02:44:07;;;;;;;;;;;17.30;76.80;;;;;;4981577;28;87990;-53
2021/06/09 02:46:35;;;;;;;;;;;17.30;76.90;;;;;;4980796;28;87177;-50
2021/06/09 02:49:11;;;;;;;;;;;17.30;76.80;;;;;;4976624;28;88053;-51
2021/06/09 02:51:40;;;;;;;;;;;17.30;76.90;;;;;;4978142;28;89911;-51
2021/06/09 02:54:09;;;;;;;;;;;17.20;76.80;;;;;;4980231;28;87133;-51
2021/06/09 02:56:50;;;;;;;;;;;17.20;76.70;;;;;;4980532;28;88060;-50
2021/06/09 02:59:47;;;;;;;;;;;17.20;76.80;;;;;;4980785;28;87861;-51
2021/06/09 03:02:27;;;;;;;;;;;17.20;77.30;;;;;;4991736;28;88471;-51
2021/06/09 03:04:54;;;;;;;;;;;17.20;76.70;;;;;;4977864;28;89143;-49
2021/06/09 03:07:45;;;;;;;;;;;17.20;76.80;;;;;;4978445;28;87945;-51
2021/06/09 03:10:36;;;;;;;;;;;17.10;76.70;;;;;;4980685;28;88846;-50
2021/06/09 03:13:27;;;;;;;;;;;17.10;76.70;;;;;;4981838;28;88159;-51
2021/06/09 03:15:58;;;;;;;;;;;17.10;76.70;;;;;;4981086;28;88043;-50
2021/06/09 03:18:27;;;;;;;;;;;17.10;76.70;;;;;;4981005;28;87872;-50
2021/06/09 03:21:01;;;;;;;;;;;17.10;76.70;;;;;;4981014;28;87999;-50
2021/06/09 03:23:30;;;;;;;;;;;17.10;76.60;;;;;;4981962;28;87121;-50
2021/06/09 03:26:01;;;;;;;;;;;17.10;77.00;;;;;;4980823;28;89218;-49
2021/06/09 03:28:34;;;;;;;;;;;17.00;76.60;;;;;;4981683;28;87150;-51
2021/06/09 03:31:01;;;;;;;;;;;17.00;76.60;;;;;;4978821;28;87407;-52
2021/06/09 03:33:28;;;;;;;;;;;17.00;76.60;;;;;;4977838;28;88400;-51
2021/06/09 03:36:16;;;;;;;;;;;17.00;76.70;;;;;;4979589;28;88802;-50
2021/06/09 03:38:49;;;;;;;;;;;17.00;76.60;;;;;;4980962;28;87490;-51
2021/06/09 03:41:16;;;;;;;;;;;17.00;76.70;;;;;;4976558;28;88840;-50
2021/06/09 03:43:44;;;;;;;;;;;17.00;76.50;;;;;;4979027;28;87726;-53
2021/06/09 03:46:10;;;;;;;;;;;17.00;76.60;;;;;;4982946;28;87740;-50
2021/06/09 03:48:37;;;;;;;;;;;16.90;76.40;;;;;;4981775;28;87256;-50
2021/06/09 03:51:04;;;;;;;;;;;17.00;76.60;;;;;;4978740;28;88871;-50
2021/06/09 03:53:31;;;;;;;;;;;16.90;76.50;;;;;;4977931;28;89442;-51
2021/06/09 03:55:58;;;;;;;;;;;16.90;76.60;;;;;;4981663;28;87128;-53
2021/06/09 03:58:26;;;;;;;;;;;16.90;76.60;;;;;;4981185;28;86784;-52
2021/06/09 04:00:54;;;;;;;;;;;16.90;76.40;;;;;;4976870;28;89505;-50
2021/06/09 04:03:20;;;;;;;;;;;16.90;76.40;;;;;;4980357;28;88110;-50
2021/06/09 04:05:46;;;;;;;;;;;16.80;76.40;;;;;;4983664;28;88135;-52
2021/06/09 04:08:13;;;;;;;;;;;16.80;76.50;;;;;;4981524;28;87211;-51
2021/06/09 04:10:40;;;;;;;;;;;16.90;76.50;;;;;;4979145;28;88613;-51
2021/06/09 04:13:06;;;;;;;;;;;16.90;76.60;;;;;;4977551;28;88174;-50
2021/06/09 04:15:31;;;;;;;;;;;16.80;76.60;;;;;;4979029;28;87274;-50
2021/06/09 04:17:58;;;;;;;;;;;16.80;76.50;;;;;;4979227;28;87938;-50
2021/06/09 04:20:25;;;;;;;;;;;16.80;76.60;;;;;;4977774;28;87985;-52
2021/06/09 04:22:51;;;;;;;;;;;16.80;76.60;;;;;;4981867;28;88118;-51
2021/06/09 04:25:17;;;;;;;;;;;16.80;76.50;;;;;;4979965;28;87644;-51
2021/06/09 04:27:45;;;;;;;;;;;16.80;76.60;;;;;;4984017;28;88150;-52
2021/06/09 04:30:11;;;;;;;;;;;16.80;76.60;;;;;;4977057;28;88114;-49
2021/06/09 04:32:47;;;;;;;;;;;16.70;76.50;;;;;;4978093;28;87946;-52
2021/06/09 04:35:13;;;;;;;;;;;16.70;76.60;;;;;;4979583;28;87127;-50
2021/06/09 04:37:38;;;;;;;;;;;16.70;76.50;;;;;;4980495;28;87206;-50
2021/06/09 04:40:04;;;;;;;;;;;16.70;76.70;;;;;;4980529;28;87961;-49
2021/06/09 04:42:30;;;;;;;;;;;16.70;76.60;;;;;;4979417;28;88655;-51
2021/06/09 04:44:56;;;;;;;;;;;16.70;76.50;;;;;;4980372;28;89283;-51
2021/06/09 04:47:22;;;;;;;;;;;16.70;76.60;;;;;;4979897;28;86965;-50
2021/06/09 04:49:47;;;;;;;;;;;16.70;76.60;;;;;;4982646;28;87260;-49
2021/06/09 04:52:13;;;;;;;;;;;16.70;76.70;;;;;;4979971;28;88039;-50
2021/06/09 04:54:39;;;;;;;;;;;16.70;76.70;;;;;;4980436;28;88500;-52
2021/06/09 04:57:06;;;;;;;;;;;16.70;76.90;;;;;;4980823;28;88188;-50
2021/06/09 04:59:31;;;;;;;;;;;16.70;76.80;;;;;;4980465;28;88693;-50
2021/06/09 05:01:57;;;;;;;;;;;16.70;76.80;;;;;;4980852;28;88794;-50
2021/06/09 05:04:22;;;;;;;;;;;16.70;76.80;;;;;;4978241;28;88025;-49
2021/06/09 05:06:48;;;;;;;;;;;16.70;76.90;;;;;;4976354;28;88804;-49
2021/06/09 05:09:14;;;;;;;;;;;16.70;77.00;;;;;;4976442;28;87125;-50
2021/06/09 05:11:51;;;;;;;;;;;16.70;77.00;;;;;;4979719;28;88484;-50
2021/06/09 05:14:21;;;;;;;;;;;16.60;77.00;;;;;;4979960;28;87229;-50
2021/06/09 05:16:48;;;;;;;;;;;16.70;77.20;;;;;;4980874;28;87729;-49
2021/06/09 05:19:17;;;;;;;;;;;16.70;77.20;;;;;;4979358;28;90344;-51
2021/06/09 05:21:42;;;;;;;;;;;16.70;77.40;;;;;;4977337;28;87207;-50
2021/06/09 05:24:08;;;;;;;;;;;16.70;77.30;;;;;;4978495;28;87837;-50
2021/06/09 05:26:34;;;;;;;;;;;16.70;77.40;;;;;;4976987;28;89483;-50
2021/06/09 05:29:01;;;;;;;;;;;16.70;77.40;;;;;;4977167;28;87161;-51
2021/06/09 05:31:27;;;;;;;;;;;16.70;77.50;;;;;;4976729;28;88996;-50
2021/06/09 05:33:53;;;;;;;;;;;16.70;77.50;;;;;;4980100;28;88305;-51
2021/06/09 05:36:19;;;;;;;;;;;16.70;77.50;;;;;;4977966;28;87964;-50
2021/06/09 05:38:45;;;;;;;;;;;16.70;77.50;;;;;;4976441;28;88342;-50
2021/06/09 05:41:11;;;;;;;;;;;16.70;77.50;;;;;;4976715;28;87147;-51
2021/06/09 05:43:38;;;;;;;;;;;16.70;77.50;;;;;;4976697;28;88258;-51
2021/06/09 05:46:04;;;;;;;;;;;16.70;77.70;;;;;;4977161;28;89409;-50
2021/06/09 05:48:30;;;;;;;;;;;16.70;77.70;;;;;;4980394;28;88416;-51
2021/06/09 05:50:57;;;;;;;;;;;16.70;77.70;;;;;;4979019;28;87628;-50
2021/06/09 05:53:23;;;;;;;;;;;16.70;77.70;;;;;;4979310;28;88044;-50
2021/06/09 05:55:49;;;;;;;;;;;16.80;77.80;;;;;;4983031;28;88313;-50
2021/06/09 05:58:15;;;;;;;;;;;16.70;77.80;;;;;;4976609;28;88142;-50
2021/06/09 06:00:41;;;;;;;;;;;16.70;77.80;;;;;;4980345;28;86832;-51
2021/06/09 06:03:07;;;;;;;;;;;16.80;77.90;;;;;;4980487;28;87157;-51
2021/06/09 06:05:34;;;;;;;;;;;16.70;77.90;;;;;;4977424;28;88698;-49
2021/06/09 06:08:00;;;;;;;;;;;16.70;77.80;;;;;;4978677;28;88115;-50
2021/06/09 06:10:25;;;;;;;;;;;16.70;77.90;;;;;;4979380;28;88648;-50
2021/06/09 06:12:51;;;;;;;;;;;16.70;77.90;;;;;;4979411;28;88057;-51
2021/06/09 06:15:17;;;;;;;;;;;16.80;78.00;;;;;;4982836;28;88695;-50
2021/06/09 06:17:43;;;;;;;;;;;16.80;78.00;;;;;;4977190;28;89251;-51
2021/06/09 06:20:16;;;;;;;;;;;16.80;78.00;;;;;;4979630;28;88251;-50
2021/06/09 06:22:43;;;;;;;;;;;16.70;78.00;;;;;;4977011;28;88815;-50
2021/06/09 06:25:09;;;;;;;;;;;16.80;78.00;;;;;;4979642;28;87399;-49
2021/06/09 06:27:35;;;;;;;;;;;16.80;78.10;;;;;;4978878;28;88682;-52
2021/06/09 06:30:02;;;;;;;;;;;16.80;78.00;;;;;;4981017;28;87176;-51
2021/06/09 06:32:28;;;;;;;;;;;16.80;78.10;;;;;;4980312;28;89152;-49
2021/06/09 06:34:54;;;;;;;;;;;16.80;78.10;;;;;;4979984;28;87921;-50
2021/06/09 06:37:21;;;;;;;;;;;16.80;78.10;;;;;;4981152;28;88682;-51
2021/06/09 06:39:46;;;;;;;;;;;16.80;78.20;;;;;;4980893;28;88029;-50
2021/06/09 06:42:12;;;;;;;;;;;16.80;78.20;;;;;;4978643;28;87179;-51
2021/06/09 06:44:40;;;;;;;;;;;16.80;78.20;;;;;;4979187;28;89017;-50
2021/06/09 06:47:05;;;;;;;;;;;16.80;78.10;;;;;;4978002;28;89072;-50
2021/06/09 06:49:31;;;;;;;;;;;16.80;78.10;;;;;;4979863;28;87924;-50
2021/06/09 06:51:57;;;;;;;;;;;16.80;78.10;;;;;;4977970;28;89290;-50
2021/06/09 06:54:24;;;;;;;;;;;16.80;78.20;;;;;;4979172;28;87178;-51
2021/06/09 06:56:50;;;;;;;;;;;16.80;78.30;;;;;;4978554;28;88069;-52
2021/06/09 06:59:15;;;;;;;;;;;16.80;78.20;;;;;;4981601;28;87979;-51
2021/06/09 07:01:41;;;;;;;;;;;16.90;78.30;;;;;;4979139;28;88020;-50
2021/06/09 07:04:07;;;;;;;;;;;16.90;78.30;;;;;;4977563;28;88273;-51
2021/06/09 07:06:33;;;;;;;;;;;16.90;78.40;;;;;;4978804;28;88207;-52
2021/06/09 07:09:00;;;;;;;;;;;16.90;78.40;;;;;;4978455;28;87243;-50
2021/06/09 07:11:26;;;;;;;;;;;16.90;78.40;;;;;;4978410;28;88327;-51
2021/06/09 07:13:51;;;;;;;;;;;16.90;78.40;;;;;;4978538;28;88212;-50
2021/06/09 07:16:18;;;;;;;;;;;16.90;78.30;;;;;;4977929;28;87942;-50
2021/06/09 07:18:45;;;;;;;;;;;17.00;78.40;;;;;;4977912;28;87963;-51
2021/06/09 07:21:15;;;;;;;;;;;17.00;78.20;;;;;;4983662;28;88729;-51
2021/06/09 07:23:41;;;;;;;;;;;17.00;78.30;;;;;;4978514;28;87991;-50
2021/06/09 07:26:07;;;;;;;;;;;17.00;78.50;;;;;;4978812;28;88758;-51
2021/06/09 07:28:34;;;;;;;;;;;17.00;78.20;;;;;;4978246;28;88461;-49
2021/06/09 07:31:00;;;;;;;;;;;17.00;78.20;;;;;;4977314;28;91031;-50
2021/06/09 07:33:25;;;;;;;;;;;17.10;78.20;;;;;;4977492;28;88557;-53
2021/06/09 07:35:52;;;;;;;;;;;17.10;78.20;;;;;;4980895;28;88463;-51
2021/06/09 07:38:22;;;;;;;;;;;17.10;77.90;;;;;;4981749;28;86867;-51
2021/06/09 07:40:50;;;;;;;;;;;17.10;77.80;;;;;;4977536;28;87111;-51
2021/06/09 07:43:19;;;;;;;;;;;17.20;77.80;;;;;;4984022;28;87636;-50
2021/06/09 07:45:47;;;;;;;;;;;17.10;77.60;;;;;;4976335;28;88127;-51
2021/06/09 07:48:15;;;;;;;;;;;17.10;77.60;;;;;;4980968;28;88893;-51
2021/06/09 07:50:44;;;;;;;;;;;17.20;77.80;;;;;;4978913;28;88787;-50
2021/06/09 07:53:11;;;;;;;;;;;17.20;77.60;;;;;;4981187;28;87447;-50
2021/06/09 07:55:40;;;;;;;;;;;17.20;77.50;;;;;;4981128;28;88524;-50
2021/06/09 07:58:06;;;;;;;;;;;17.20;77.30;;;;;;4977354;28;88624;-51
2021/06/09 08:00:32;;;;;;;;;;;17.20;77.10;;;;;;4978121;28;87178;-51
2021/06/09 08:02:58;;;;;;;;;;;17.20;77.40;;;;;;4981467;28;88908;-50
2021/06/09 08:05:25;;;;;;;;;;;17.30;77.50;;;;;;4978325;28;87150;-51
2021/06/09 08:07:51;;;;;;;;;;;17.30;77.40;;;;;;4977211;28;89215;-51
2021/06/09 08:10:17;;;;;;;;;;;17.20;76.80;;;;;;4977059;28;89478;-52
2021/06/09 08:12:43;;;;;;;;;;;17.30;76.90;;;;;;4977231;28;87182;-50
2021/06/09 08:15:11;;;;;;;;;;;17.30;76.70;;;;;;4977527;28;87999;-51
2021/06/09 08:17:39;;;;;;;;;;;17.30;76.80;;;;;;4979079;28;88125;-52
2021/06/09 08:20:07;;;;;;;;;;;17.30;76.80;;;;;;4981271;28;87206;-50
2021/06/09 08:22:32;;;;;;;;;;;17.30;76.60;;;;;;4979190;28;87128;-51
2021/06/09 08:24:58;;;;;;;;;;;17.30;76.80;;;;;;4983060;28;87664;-50
2021/06/09 08:27:23;;;;;;;;;;;17.30;76.70;;;;;;4981743;28;87996;-51
2021/06/09 08:29:49;;;;;;;;;;;17.40;76.70;;;;;;4977754;28;87724;-50
2021/06/09 08:32:14;;;;;;;;;;;17.40;76.70;;;;;;4977429;28;87259;-50
2021/06/09 08:34:40;;;;;;;;;;;17.30;76.90;;;;;;4976749;28;88109;-52
2021/06/09 08:37:05;;;;;;;;;;;17.40;76.80;;;;;;4978121;28;88680;-51
2021/06/09 08:39:31;;;;;;;;;;;17.40;76.50;;;;;;4979511;28;87136;-50
2021/06/09 08:41:57;;;;;;;;;;;17.40;76.40;;;;;;4980511;28;87969;-52
2021/06/09 08:44:23;;;;;;;;;;;17.40;76.50;;;;;;4979843;28;89498;-52
2021/06/09 08:46:49;;;;;;;;;;;17.50;76.80;;;;;;4981744;28;88247;-50
2021/06/09 08:49:16;;;;;;;;;;;17.50;76.30;;;;;;4977148;28;91832;-51
2021/06/09 08:51:41;;;;;;;;;;;17.50;76.80;;;;;;4981679;28;86519;-50
2021/06/09 08:54:08;;;;;;;;;;;17.50;75.80;;;;;;4979998;28;88862;-50
2021/06/09 08:56:36;;;;;;;;;;;17.50;76.10;;;;;;4980718;28;89394;-50
2021/06/09 08:59:02;;;;;;;;;;;17.50;75.70;;;;;;4978165;28;88090;-49
2021/06/09 09:01:31;;;;;;;;;;;17.50;76.20;;;;;;4979356;28;89526;-51
2021/06/09 09:03:57;;;;;;;;;;;17.60;75.90;;;;;;4976186;28;89087;-51
2021/06/09 09:06:24;;;;;;;;;;;17.60;75.50;;;;;;4977262;28;87257;-51
2021/06/09 09:08:49;;;;;;;;;;;17.60;75.70;;;;;;4979311;28;88896;-50
2021/06/09 09:11:15;;;;;;;;;;;17.60;75.80;;;;;;4976461;28;87262;-50
2021/06/09 09:13:41;;;;;;;;;;;17.60;75.60;;;;;;4977042;28;87153;-52
2021/06/09 09:16:06;;;;;;;;;;;17.60;75.70;;;;;;4977013;28;87891;-51
2021/06/09 09:18:38;;;;;;;;;;;17.70;75.40;;;;;;4978077;28;87134;-52
2021/06/09 09:21:03;;;;;;;;;;;17.70;75.40;;;;;;4977976;28;87760;-50
2021/06/09 09:23:29;;;;;;;;;;;17.70;76.10;;;;;;4976643;28;90005;-51
2021/06/09 09:25:56;;;;;;;;;;;17.70;75.30;;;;;;4978772;28;87130;-51
2021/06/09 09:28:29;;;;;;;;;;;17.80;75.30;;;;;;4977959;28;87732;-52
2021/06/09 09:31:04;;;;;;;;;;;17.80;75.00;;;;;;4978874;28;89162;-51
2021/06/09 09:33:31;;;;;;;;;;;17.80;75.10;;;;;;4980069;28;88740;-52
2021/06/09 09:35:56;;;;;;;;;;;17.80;74.80;;;;;;4980321;28;88200;-54
2021/06/09 09:38:27;;;;;;;;;;;17.80;75.30;;;;;;4978073;28;87616;-51
2021/06/09 09:41:05;;;;;;;;;;;17.90;75.20;;;;;;4976710;28;88648;-51
2021/06/09 09:43:43;;;;;;;;;;;17.90;75.60;;;;;;4979903;28;89365;-51
2021/06/09 09:46:09;;;;;;;;;;;17.90;75.60;;;;;;4977954;28;87254;-50
2021/06/09 09:48:38;;;;;;;;;;;18.00;75.40;;;;;;4976765;28;89361;-53
2021/06/09 09:51:04;;;;;;;;;;;18.00;75.70;;;;;;4977511;28;89093;-53
2021/06/09 09:53:31;;;;;;;;;;;18.00;75.50;;;;;;4979479;28;87240;-50
2021/06/09 09:55:58;;;;;;;;;;;18.00;74.90;;;;;;4977070;28;88160;-51
2021/06/09 09:58:25;;;;;;;;;;;18.00;75.90;;;;;;4982576;28;88163;-51
2021/06/09 10:00:50;;;;;;;;;;;18.00;75.40;;;;;;4983062;28;89063;-52
2021/06/09 10:03:20;;;;;;;;;;;18.10;75.60;;;;;;4983001;28;88858;-50
2021/06/09 10:05:46;;;;;;;;;;;18.10;75.00;;;;;;4979810;28;86421;-50
2021/06/09 10:08:11;;;;;;;;;;;18.10;75.10;;;;;;4980116;28;87147;-50
2021/06/09 10:10:37;;;;;;;;;;;18.10;74.60;;;;;;4980418;28;89200;-50
2021/06/09 10:13:15;;;;;;;;;;;18.10;75.40;;;;;;4983922;28;88106;-51
2021/06/09 10:15:47;;;;;;;;;;;18.10;75.20;;;;;;4979684;28;89712;-50
2021/06/09 10:18:20;;;;;;;;;;;18.20;75.60;;;;;;4979193;28;87188;-51
2021/06/09 10:20:48;;;;;;;;;;;18.20;75.60;;;;;;4982681;28;88001;-49
2021/06/09 10:23:32;;;;;;;;;;;18.20;75.40;;;;;;4979838;28;89255;-50
2021/06/09 10:26:24;;;;;;;;;;;18.20;75.60;;;;;;4981894;28;87211;-52
2021/06/09 10:29:04;;;;;;;;;;;18.20;75.90;;;;;;4982540;28;87359;-51
2021/06/09 10:31:33;;;;;;;;;;;18.30;75.10;;;;;;4983851;28;87496;-51
2021/06/09 10:33:59;;;;;;;;;;;18.30;75.00;;;;;;4978842;28;87159;-53
2021/06/09 10:36:25;;;;;;;;;;;18.30;74.90;;;;;;4982375;28;87948;-50
2021/06/09 10:38:51;;;;;;;;;;;18.40;74.80;;;;;;4980278;28;88169;-50
2021/06/09 10:41:18;;;;;;;;;;;18.40;74.30;;;;;;4980132;28;88269;-51
2021/06/09 10:43:45;;;;;;;;;;;18.40;73.90;;;;;;4979179;28;87946;-50
2021/06/09 10:46:11;;;;;;;;;;;18.40;74.40;;;;;;4977880;28;88142;-49
2021/06/09 10:48:38;;;;;;;;;;;18.50;74.30;;;;;;4979040;28;88799;-50
2021/06/09 10:51:04;;;;;;;;;;;18.50;74.20;;;;;;4982424;28;88319;-50
2021/06/09 10:53:30;;;;;;;;;;;18.50;74.10;;;;;;4980875;28;88332;-50
2021/06/09 10:55:56;;;;;;;;;;;18.60;74.40;;;;;;4980497;28;87699;-49
2021/06/09 10:58:24;;;;;;;;;;;18.60;73.80;;;;;;4981113;28;87171;-50
2021/06/09 11:00:53;;;;;;;;;;;18.60;74.00;;;;;;4982719;28;88460;-52
2021/06/09 11:03:19;;;;;;;;;;;18.60;74.20;;;;;;4978147;28;88482;-52
2021/06/09 11:05:45;;;;;;;;;;;18.60;73.90;;;;;;4978766;28;87189;-50
2021/06/09 11:08:14;;;;;;;;;;;18.60;74.10;;;;;;4979850;28;87111;-52
2021/06/09 11:10:42;;;;;;;;;;;18.70;74.00;;;;;;4981390;28;87596;-52
2021/06/09 11:13:09;;;;;;;;;;;18.70;73.50;;;;;;4980509;28;87151;-53
2021/06/09 11:15:35;;;;;;;;;;;18.70;73.60;;;;;;4979855;28;89010;-50
2021/06/09 11:18:09;;;;;;;;;;;18.70;73.20;;;;;;4980166;28;88253;-50
2021/06/09 11:20:39;;;;;;;;;;;18.70;73.30;;;;;;4984359;28;88093;-50
2021/06/09 11:23:06;;;;;;;;;;;18.70;73.70;;;;;;4977542;28;89176;-50
2021/06/09 11:25:40;;;;;;;;;;;18.80;73.60;;;;;;4980914;28;88753;-50
2021/06/09 11:28:07;;;;;;;;;;;18.80;73.40;;;;;;4978544;28;89069;-51
2021/06/09 11:30:33;;;;;;;;;;;18.80;73.00;;;;;;4977382;28;89593;-51
2021/06/09 11:33:00;;;;;;;;;;;18.80;72.90;;;;;;4979225;28;87150;-51
2021/06/09 11:35:49;;;;;;;;;;;18.80;72.80;;;;;;4978014;28;88480;-55
2021/06/09 11:38:14;;;;;;;;;;;18.80;73.10;;;;;;4980884;28;89484;-49
2021/06/09 11:40:46;;;;;;;;;;;18.90;73.20;;;;;;4980405;28;87121;-50
2021/06/09 11:43:22;;;;;;;;;;;18.90;73.20;;;;;;4983065;28;87176;-52
2021/06/09 11:45:58;;;;;;;;;;;18.90;72.60;;;;;;4981226;28;86388;-52
2021/06/09 11:48:25;;;;;;;;;;;18.90;72.80;;;;;;4979486;28;87981;-52
2021/06/09 11:50:56;;;;;;;;;;;18.90;71.80;;;;;;4978416;28;89669;-51
2021/06/09 11:53:39;;;;;;;;;;;19.00;71.70;;;;;;4977510;28;88135;-50
2021/06/09 11:56:22;;;;;;;;;;;19.00;72.30;;;;;;4981696;28;89522;-52
2021/06/09 11:58:49;;;;;;;;;;;19.00;72.20;;;;;;4979401;28;87641;-50
2021/06/09 12:01:16;;;;;;;;;;;19.00;73.20;;;;;;4977562;28;88835;-50
2021/06/09 12:03:41;;;;;;;;;;;19.00;72.60;;;;;;4981990;28;88829;-51
2021/06/09 12:06:27;;;;;;;;;;;19.00;72.90;;;;;;4982619;28;88549;-50
2021/06/09 12:08:54;;;;;;;;;;;19.00;72.20;;;;;;4976992;28;87631;-51
2021/06/09 12:11:20;;;;;;;;;;;19.10;72.40;;;;;;4979276;28;87529;-50
2021/06/09 12:13:46;;;;;;;;;;;19.10;72.40;;;;;;4977154;28;87200;-51
2021/06/09 12:16:19;;;;;;;;;;;19.10;72.50;;;;;;4977044;28;88685;-50
2021/06/09 12:18:45;;;;;;;;;;;19.10;72.70;;;;;;4980209;28;90546;-51
2021/06/09 12:21:12;;;;;;;;;;;19.10;72.20;;;;;;4980932;28;88233;-52
2021/06/09 12:23:49;;;;;;;;;;;19.20;72.50;;;;;;4981577;28;87989;-53
2021/06/09 12:26:15;;;;;;;;;;;19.10;72.20;;;;;;4982467;28;89520;-51
2021/06/09 12:28:40;;;;;;;;;;;19.30;71.90;;;;;;4981327;28;87174;-50
2021/06/09 12:31:11;;;;;;;;;;;19.20;71.80;;;;;;4978915;28;87534;-50
2021/06/09 12:33:37;;;;;;;;;;;19.20;72.10;;;;;;4977297;28;87135;-50
2021/06/09 12:36:07;;;;;;;;;;;19.20;72.10;;;;;;4978998;28;87473;-52
2021/06/09 12:38:32;;;;;;;;;;;19.30;72.30;;;;;;4977085;28;89027;-50
2021/06/09 12:40:59;;;;;;;;;;;19.30;72.00;;;;;;4978071;28;87125;-49
2021/06/09 12:43:25;;;;;;;;;;;19.30;72.20;;;;;;4977390;28;88081;-51
2021/06/09 12:45:51;;;;;;;;;;;19.30;71.80;;;;;;4978050;28;89716;-49
2021/06/09 12:48:21;;;;;;;;;;;19.40;72.00;;;;;;4981808;28;87146;-50
2021/06/09 12:50:47;;;;;;;;;;;19.40;71.30;;;;;;4980176;28;89923;-51
2021/06/09 12:53:14;;;;;;;;;;;19.40;71.60;;;;;;4979378;28;87887;-50
2021/06/09 12:55:41;;;;;;;;;;;19.40;72.40;;;;;;4980862;28;87280;-54
2021/06/09 12:58:08;;;;;;;;;;;19.50;71.30;;;;;;4979261;28;88162;-50
2021/06/09 13:00:41;;;;;;;;;;;19.50;71.30;;;;;;4979242;28;86423;-51
2021/06/09 13:03:10;;;;;;;;;;;19.50;71.40;;;;;;4976632;28;88731;-51
2021/06/09 13:05:36;;;;;;;;;;;19.50;71.40;;;;;;4977037;28;88382;-51
2021/06/09 13:08:11;;;;;;;;;;;19.60;71.00;;;;;;4977905;28;88253;-52
2021/06/09 13:10:37;;;;;;;;;;;19.60;70.80;;;;;;4981499;28;88650;-50
2021/06/09 13:13:05;;;;;;;;;;;19.60;70.60;;;;;;4978888;28;87181;-51
2021/06/09 13:15:31;;;;;;;;;;;19.60;71.00;;;;;;4977125;28;87499;-51
2021/06/09 13:17:56;;;;;;;;;;;19.60;70.50;;;;;;4977788;28;88653;-53
2021/06/09 13:20:22;;;;;;;;;;;19.60;71.20;;;;;;4979323;28;87442;-52
2021/06/09 13:22:49;;;;;;;;;;;19.70;70.50;;;;;;4979537;28;88097;-50
2021/06/09 13:25:15;;;;;;;;;;;19.70;70.70;;;;;;4977327;28;87929;-51
2021/06/09 13:27:41;;;;;;;;;;;19.70;70.70;;;;;;4977504;28;87198;-50
2021/06/09 13:30:08;;;;;;;;;;;19.70;70.10;;;;;;4978322;28;87497;-51
2021/06/09 13:32:34;;;;;;;;;;;19.80;70.30;;;;;;4980481;28;89122;-51
2021/06/09 13:35:02;;;;;;;;;;;19.80;70.40;;;;;;4980955;28;88257;-50
2021/06/09 13:37:33;;;;;;;;;;;19.90;70.10;;;;;;4979374;28;88582;-52
2021/06/09 13:40:21;;;;;;;;;;;19.90;70.10;;;;;;4980070;28;87239;-51
2021/06/09 13:42:59;;;;;;;;;;;20.00;70.40;;;;;;4984080;28;88590;-53
2021/06/09 13:45:26;;;;;;;;;;;19.90;70.30;;;;;;4981574;28;89105;-51
2021/06/09 13:48:05;;;;;;;;;;;20.00;70.20;;;;;;4981123;28;87138;-49
2021/06/09 13:50:32;;;;;;;;;;;20.00;70.40;;;;;;4983515;28;87648;-51
2021/06/09 13:53:03;;;;;;;;;;;20.00;70.10;;;;;;4981874;28;89150;-50
2021/06/09 13:55:28;;;;;;;;;;;20.00;70.50;;;;;;4985088;28;87175;-51
2021/06/09 13:57:54;;;;;;;;;;;19.90;70.40;;;;;;4981763;28;89093;-50
2021/06/09 14:00:28;;;;;;;;;;;19.90;70.60;;;;;;4983433;28;87160;-53
2021/06/09 14:02:53;;;;;;;;;;;19.90;70.40;;;;;;4980958;28;88984;-50
2021/06/09 14:05:23;;;;;;;;;;;20.00;70.20;;;;;;4981595;28;88344;-51
2021/06/09 14:07:48;;;;;;;;;;;20.00;70.70;;;;;;4981512;28;88208;-52
2021/06/09 14:10:15;;;;;;;;;;;20.00;70.20;;;;;;4979240;28;87353;-52
2021/06/09 14:12:47;;;;;;;;;;;20.10;70.10;;;;;;4979806;28;89818;-51
2021/06/09 14:15:12;;;;;;;;;;;20.20;70.20;;;;;;4983263;28;86545;-51
2021/06/09 14:17:38;;;;;;;;;;;20.20;70.00;;;;;;4985977;28;87736;-51
2021/06/09 14:20:10;;;;;;;;;;;20.20;70.10;;;;;;4982128;28;88663;-52